Time;durP1;ratioP1;P1;durP2;ratioP2;P2;SDS_P1;SDS_P2;PMS_P1;PMS_P2;Temp;Humidity;BMP_temperature;BMP_pressure;BME280_temperature;BME280_humidity;BME280_pressure;Samples;Min_cycle;Max_cycle;Signal;HPM_P1;HPM_P2
2024/02/09 00:00:57;;;;;;;9.40;5.20;;;;;;;8.30;68.62;94388.27;106956;1275;22522;-77
2024/02/09 00:03:40;;;;;;;8.30;3.90;;;;;;;8.26;68.50;94383.31;106976;1275;24855;-77
2024/02/09 00:06:08;;;;;;;9.30;4.60;;;;;;;8.25;68.50;94389.29;107020;1275;24396;-77
2024/02/09 00:08:40;;;;;;;8.20;3.70;;;;;;;8.23;68.24;94384.27;106733;1275;22519;-77
2024/02/09 00:11:11;;;;;;;4.70;3.20;;;;;;;8.12;68.28;94386.34;107033;1275;24310;-77
2024/02/09 00:13:42;;;;;;;9.00;4.40;;;;;;;8.27;68.12;94376.11;106722;1275;24286;-77
2024/02/09 00:16:12;;;;;;;9.10;4.00;;;;;;;8.36;68.11;94371.98;106701;1275;25373;-77
2024/02/09 00:18:41;;;;;;;5.80;3.50;;;;;;;8.38;67.65;94375.79;106633;1275;25388;-78
2024/02/09 00:21:10;;;;;;;9.70;4.60;;;;;;;8.37;67.80;94377.39;106720;1275;22533;-77
2024/02/09 00:23:40;;;;;;;7.70;3.50;;;;;;;8.43;67.69;94378.63;106606;1275;22539;-77
2024/02/09 00:26:09;;;;;;;8.10;4.30;;;;;;;8.47;67.39;94382.19;106671;1275;22523;-77
2024/02/09 00:28:37;;;;;;;8.30;3.70;;;;;;;8.47;67.36;94368.52;106633;1275;23898;-77
2024/02/09 00:31:06;;;;;;;6.60;3.30;;;;;;;8.39;67.27;94364.90;106658;1275;25352;-77
2024/02/09 00:33:35;;;;;;;8.90;4.10;;;;;;;8.30;67.54;94360.94;106697;1275;22523;-77
2024/02/09 00:36:04;;;;;;;9.60;5.10;;;;;;;8.19;67.93;94363.70;106680;1275;24830;-77
2024/02/09 00:38:36;;;;;;;7.10;4.50;;;;;;;8.07;68.15;94357.93;106681;1275;22654;-77
2024/02/09 00:41:07;;;;;;;7.80;4.00;;;;;;;8.09;67.71;94350.89;106651;1275;22526;-77
2024/02/09 00:43:35;;;;;;;9.60;5.40;;;;;;;8.27;67.34;94347.03;106687;1275;24221;-77
2024/02/09 00:46:04;;;;;;;5.90;4.30;;;;;;;8.39;66.96;94343.33;106642;1275;24282;-77
2024/02/09 00:48:32;;;;;;;6.70;4.40;;;;;;;8.42;66.82;94341.70;106778;1275;24264;-77
2024/02/09 00:51:00;;;;;;;6.20;3.60;;;;;;;8.36;66.58;94348.67;107036;1275;22526;-77
2024/02/09 00:53:29;;;;;;;5.70;3.70;;;;;;;8.26;66.58;94349.16;106659;1275;22532;-78
2024/02/09 00:55:57;;;;;;;8.70;4.40;;;;;;;8.25;66.50;94350.77;106689;1275;22577;-78
2024/02/09 00:58:25;;;;;;;8.20;4.00;;;;;;;8.31;66.58;94336.23;106639;1275;25305;-77
2024/02/09 01:00:53;;;;;;;8.10;3.60;;;;;;;8.27;66.51;94318.83;106673;1275;23888;-77
2024/02/09 01:03:22;;;;;;;6.50;3.70;;;;;;;8.16;66.55;94320.35;106881;1275;22691;-77
2024/02/09 01:05:50;;;;;;;7.20;4.00;;;;;;;8.06;66.75;94312.94;106632;1275;22522;-77
2024/02/09 01:08:19;;;;;;;6.80;4.30;;;;;;;7.99;66.65;94318.05;106645;1275;22616;-77
2024/02/09 01:10:47;;;;;;;6.20;3.70;;;;;;;7.88;67.09;94325.73;106781;1275;23350;-78
2024/02/09 02:44:59;;;;;;;8.60;5.00;;;;;;;8.43;63.99;94268.06;106622;1275;22638;-76
2024/02/09 02:47:28;;;;;;;8.00;4.40;;;;;;;8.46;64.00;94264.65;106776;1275;23992;-76
2024/02/09 03:04:18;;;;;;;7.30;4.00;;;;;;;8.69;63.01;94255.83;106960;1275;24360;-76
2024/02/09 03:06:39;;;;;;;5.40;3.60;;;;;;;8.70;63.55;94288.25;106662;1275;22536;-77
2024/02/09 03:09:27;;;;;;;10.10;3.90;;;;;;;8.72;63.82;94290.98;106673;1275;22513;-76
2024/02/09 03:11:59;;;;;;;5.70;3.10;;;;;;;8.71;63.74;94281.55;106607;1263;24202;-77
2024/02/09 03:14:30;;;;;;;9.20;3.70;;;;;;;8.78;63.77;94280.10;106642;1275;22537;-78
2024/02/09 03:16:58;;;;;;;10.30;3.40;;;;;;;8.85;63.64;94283.89;106713;1275;25415;-76
2024/02/09 03:19:27;;;;;;;5.00;2.40;;;;;;;8.91;63.57;94278.61;106673;1275;25371;-76
2024/02/09 03:21:56;;;;;;;8.80;3.50;;;;;;;8.96;63.55;94275.45;106660;1275;22668;-77
2024/02/09 03:24:25;;;;;;;3.60;1.80;;;;;;;8.97;63.53;94279.45;106695;1275;22610;-78
2024/02/09 03:26:54;;;;;;;4.00;2.50;;;;;;;8.97;63.60;94272.09;106161;1275;632936;-77
2024/02/09 03:29:22;;;;;;;4.60;2.70;;;;;;;8.93;63.72;94271.70;106631;1275;22524;-77
2024/02/09 03:31:50;;;;;;;5.00;2.60;;;;;;;8.92;63.79;94269.80;106698;1275;25250;-77
2024/02/09 03:34:18;;;;;;;4.90;2.20;;;;;;;8.95;63.88;94271.12;106679;1275;22749;-77
2024/02/09 03:36:47;;;;;;;4.30;2.80;;;;;;;8.95;64.01;94271.99;106627;1275;22573;-77
2024/02/09 03:39:15;;;;;;;6.90;2.60;;;;;;;8.97;63.89;94274.39;106695;1275;22622;-76
2024/02/09 03:41:43;;;;;;;7.20;2.90;;;;;;;9.03;63.86;94270.84;106585;1275;22530;-77
2024/02/09 03:44:12;;;;;;;7.40;2.90;;;;;;;9.03;63.75;94267.15;106639;1253;25630;-78
2024/02/09 03:46:40;;;;;;;3.30;2.10;;;;;;;9.07;63.73;94261.58;106759;1275;22521;-79
2024/02/09 03:49:11;;;;;;;4.10;2.70;;;;;;;9.13;63.54;94262.09;106625;1275;23904;-77
2024/02/09 03:51:40;;;;;;;5.30;2.40;;;;;;;9.15;63.57;94263.27;106751;1275;24282;-79
2024/02/09 03:54:08;;;;;;;5.50;2.50;;;;;;;9.16;63.56;94272.33;106638;1263;24261;-76
2024/02/09 03:56:36;;;;;;;6.10;2.00;;;;;;;9.11;63.81;94264.76;106664;1275;26685;-76
2024/02/09 03:59:06;;;;;;;2.80;1.60;;;;;;;9.09;63.76;94274.70;106741;1275;23657;-78
2024/02/09 04:01:34;;;;;;;7.30;2.50;;;;;;;9.13;63.57;94268.04;106710;1275;22535;-76
2024/02/09 04:04:03;;;;;;;6.00;2.90;;;;;;;9.13;63.63;94267.36;106722;1275;22521;-77
2024/02/09 04:06:32;;;;;;;4.10;2.20;;;;;;;9.03;63.80;94268.73;106727;1271;22531;-77
2024/02/09 04:09:01;;;;;;;7.30;2.40;;;;;;;8.97;64.16;94276.30;106689;1275;25345;-77
2024/02/09 04:11:49;;;;;;;6.50;2.60;;;;;;;8.99;64.26;94268.68;106673;1275;24491;-76
2024/02/09 04:14:17;;;;;;;5.80;2.60;;;;;;;8.99;64.25;94270.29;106672;1275;25354;-77
2024/02/09 04:16:49;;;;;;;7.90;3.10;;;;;;;9.03;64.18;94258.39;106701;1275;25484;-76
2024/02/09 04:19:19;;;;;;;5.60;2.80;;;;;;;9.01;64.41;94264.60;106815;1275;25355;-80
2024/02/09 04:21:47;;;;;;;6.00;2.70;;;;;;;9.05;64.45;94259.89;106719;1275;24309;-77
2024/02/09 04:24:23;;;;;;;4.60;2.50;;;;;;;9.10;64.41;94259.01;106715;1275;25351;-76
2024/02/09 04:26:55;;;;;;;4.80;2.70;;;;;;;9.10;64.43;94265.88;106693;1275;24381;-77
2024/02/09 04:29:23;;;;;;;9.60;3.20;;;;;;;9.10;64.52;94265.86;106656;1275;22527;-77
2024/02/09 04:31:52;;;;;;;7.90;4.60;;;;;;;9.06;64.51;94264.77;106476;1275;24405;-76
2024/02/09 04:34:20;;;;;;;7.60;2.90;;;;;;;9.01;64.56;94262.14;106612;1275;25252;-77
2024/02/09 04:36:48;;;;;;;7.70;3.30;;;;;;;8.94;64.86;94256.23;106604;1275;24390;-78
2024/02/09 04:39:19;;;;;;;9.90;4.00;;;;;;;8.92;65.48;94253.50;106902;1275;23899;-77
2024/02/09 04:41:50;;;;;;;8.00;3.40;;;;;;;8.94;66.12;94250.13;106889;1275;22523;-77
2024/02/09 04:44:21;;;;;;;4.80;2.90;;;;;;;8.93;65.87;94260.33;106668;1264;24268;-77
2024/02/09 04:46:49;;;;;;;5.40;3.00;;;;;;;9.04;66.74;94260.80;106700;1275;25359;-77
2024/02/09 04:49:18;;;;;;;39.10;22.50;;;;;;;9.15;66.47;94249.91;106822;1275;22540;-76
2024/02/09 04:51:46;;;;;;;6.90;4.50;;;;;;;9.19;65.95;94254.84;106705;1275;22540;-78
2024/02/09 04:54:15;;;;;;;4.60;2.60;;;;;;;9.22;66.00;94252.48;106720;1275;23981;-76
2024/02/09 04:56:43;;;;;;;7.00;2.50;;;;;;;9.20;65.28;94258.52;106703;1275;26613;-76
2024/02/09 04:59:12;;;;;;;5.40;2.00;;;;;;;9.18;64.67;94264.73;106703;1275;22530;-77
2024/02/09 05:01:41;;;;;;;4.00;2.40;;;;;;;9.21;64.50;94261.14;106735;1275;22518;-77
2024/02/09 05:04:12;;;;;;;5.40;2.60;;;;;;;9.18;64.46;94261.56;106686;1275;22639;-76
2024/02/09 05:06:41;;;;;;;13.20;8.60;;;;;;;9.13;64.51;94268.39;106694;1275;24219;-76
2024/02/09 05:09:09;;;;;;;7.10;3.20;;;;;;;9.07;64.59;94271.59;106844;1265;27111;-76
2024/02/09 05:11:39;;;;;;;8.40;3.80;;;;;;;9.01;64.56;94266.69;106711;1275;25561;-76
2024/02/09 05:14:07;;;;;;;13.40;10.60;;;;;;;8.95;64.61;94263.77;106616;1275;22628;-76
2024/02/09 05:16:38;;;;;;;4.80;3.30;;;;;;;8.87;64.89;94262.98;106702;1275;24409;-76
2024/02/09 05:19:11;;;;;;;6.80;2.50;;;;;;;8.77;64.96;94265.21;106694;1275;25290;-76
2024/02/09 05:21:40;;;;;;;5.90;3.00;;;;;;;8.79;64.80;94266.75;106715;1275;22469;-77
2024/02/09 05:24:08;;;;;;;9.20;2.60;;;;;;;8.90;64.55;94259.89;106727;1275;24514;-76
2024/02/09 05:26:36;;;;;;;6.10;2.70;;;;;;;8.92;64.35;94267.55;106659;1275;24880;-77
2024/02/09 05:29:04;;;;;;;7.30;2.70;;;;;;;8.89;64.25;94261.86;106720;1275;22614;-76
2024/02/09 05:31:33;;;;;;;9.50;5.40;;;;;;;8.86;64.31;94269.11;106807;1275;23928;-76
2024/02/09 05:34:03;;;;;;;21.50;12.80;;;;;;;8.87;64.39;94268.05;106659;1275;25404;-77
2024/02/09 05:36:32;;;;;;;9.50;6.70;;;;;;;8.89;64.10;94270.60;106687;1265;22536;-76
2024/02/09 05:39:02;;;;;;;6.70;3.20;;;;;;;8.89;64.17;94271.12;106694;1275;22653;-76
2024/02/09 05:41:31;;;;;;;6.70;3.50;;;;;;;8.92;63.89;94267.73;106684;1275;24520;-77
2024/02/09 05:43:59;;;;;;;5.60;2.80;;;;;;;8.96;63.61;94270.20;106714;1275;22513;-76
2024/02/09 05:46:27;;;;;;;4.00;3.40;;;;;;;8.96;63.57;94273.55;106688;1275;25542;-76
2024/02/09 05:48:56;;;;;;;10.00;6.50;;;;;;;8.96;63.54;94278.08;106736;1275;25226;-77
2024/02/09 05:51:25;;;;;;;8.30;5.00;;;;;;;8.98;63.49;94284.16;106748;1275;24034;-76
2024/02/09 05:53:53;;;;;;;7.70;3.70;;;;;;;8.97;63.42;94277.90;106674;1275;26654;-76
2024/02/09 05:56:25;;;;;;;4.00;2.40;;;;;;;8.94;63.47;94283.08;106616;1275;22641;-76
2024/02/09 05:58:59;;;;;;;5.10;3.00;;;;;;;8.95;63.67;94291.83;106753;1264;22560;-76
2024/02/09 06:01:31;;;;;;;;;;;;;;;8.94;64.05;94286.40;106710;1275;22511;-76
2024/02/09 06:04:00;;;;;;;5.40;3.60;;;;;;;8.96;64.66;94292.13;106759;1253;22536;-77
2024/02/09 06:06:28;;;;;;;5.20;2.80;;;;;;;9.08;65.50;94294.00;106935;1274;25268;-76
2024/02/09 06:08:58;;;;;;;6.90;3.00;;;;;;;9.19;65.11;94306.97;106818;1275;24249;-77
2024/02/09 06:11:26;;;;;;;5.10;2.70;;;;;;;9.30;64.77;94308.88;106674;1275;22799;-76
2024/02/09 06:13:54;;;;;;;5.10;2.90;;;;;;;9.29;63.56;94309.95;106691;1275;22525;-77
2024/02/09 06:16:23;;;;;;;3.40;2.50;;;;;;;9.24;63.42;94315.92;107048;1257;22577;-76
2024/02/09 06:18:51;;;;;;;7.10;3.10;;;;;;;9.20;63.40;94321.16;106985;1275;25359;-77
2024/02/09 06:21:20;;;;;;;6.00;2.70;;;;;;;9.16;63.20;94325.65;106651;1275;23144;-78
2024/02/09 06:23:49;;;;;;;6.00;2.70;;;;;;;9.18;63.13;94329.29;106636;1275;24516;-77
2024/02/09 06:26:18;;;;;;;5.20;2.80;;;;;;;9.22;63.14;94327.22;106928;1275;26669;-77
2024/02/09 06:28:46;;;;;;;4.70;3.40;;;;;;;9.25;63.33;94329.76;106710;1275;24411;-77
2024/02/09 06:31:23;;;;;;;5.20;2.60;;;;;;;9.25;63.11;94333.09;106684;1275;22712;-77
2024/02/09 06:33:55;;;;;;;7.00;2.60;;;;;;;9.28;63.13;94340.33;106727;1275;22535;-78
2024/02/09 06:36:26;;;;;;;7.10;3.80;;;;;;;9.36;62.25;94336.94;106697;1275;23904;-77
2024/02/09 06:38:54;;;;;;;7.10;3.70;;;;;;;9.39;62.34;94340.14;106980;1275;24343;-77
2024/02/09 06:41:23;;;;;;;5.70;3.30;;;;;;;9.40;62.48;94346.63;106727;1275;22641;-78
2024/02/09 06:43:51;;;;;;;8.10;3.40;;;;;;;9.41;62.24;94346.41;106796;1275;22546;-78
2024/02/09 06:46:20;;;;;;;6.50;3.50;;;;;;;9.44;62.21;94354.73;106929;1275;25332;-79
2024/02/09 06:48:49;;;;;;;8.00;3.80;;;;;;;9.44;62.22;94360.33;106980;1272;25361;-77
2024/02/09 06:51:19;;;;;;;11.30;3.30;;;;;;;9.43;61.76;94358.44;106719;1275;22538;-77
2024/02/09 06:53:48;;;;;;;8.30;5.00;;;;;;;9.47;61.52;94362.15;106779;1275;25495;-78
2024/02/09 06:56:16;;;;;;;10.10;6.20;;;;;;;9.48;61.75;94361.60;107015;1275;25383;-77
2024/02/09 06:58:50;;;;;;;7.60;3.00;;;;;;;9.50;61.26;94366.46;106970;1275;22801;-77
2024/02/09 07:01:19;;;;;;;7.50;3.50;;;;;;;9.53;60.78;94361.98;107243;1275;22594;-77
2024/02/09 07:03:49;;;;;;;7.40;3.20;;;;;;;9.54;60.78;94369.65;106687;1275;24221;-77
2024/02/09 07:06:19;;;;;;;9.60;5.80;;;;;;;9.57;60.69;94356.41;106827;1275;24063;-77
2024/02/09 07:08:53;;;;;;;11.90;5.90;;;;;;;9.58;60.58;94364.27;107090;1275;24842;-76
2024/02/09 07:11:22;;;;;;;5.50;3.00;;;;;;;9.61;60.50;94368.55;106867;1275;22517;-76
2024/02/09 07:13:50;;;;;;;5.70;3.80;;;;;;;9.61;60.71;94367.50;107036;1275;24222;-75
2024/02/09 07:16:18;;;;;;;10.20;4.30;;;;;;;9.59;60.77;94371.05;106898;1275;22622;-75
2024/02/09 07:18:47;;;;;;;5.60;3.10;;;;;;;9.61;60.49;94369.77;106879;1275;25420;-75
2024/02/09 07:21:16;;;;;;;9.20;4.30;;;;;;;9.63;60.39;94371.61;106900;1275;22523;-76
2024/02/09 07:23:49;;;;;;;8.80;3.60;;;;;;;9.65;60.13;94372.63;106656;1273;22572;-78
2024/02/09 07:26:20;;;;;;;8.10;3.60;;;;;;;9.68;59.82;94365.31;107099;1275;24286;-75
2024/02/09 07:28:49;;;;;;;12.70;3.40;;;;;;;9.69;59.98;94361.23;107104;1275;22529;-75
2024/02/09 07:31:18;;;;;;;8.60;4.20;;;;;;;9.71;60.03;94362.05;106743;1259;22533;-76
2024/02/09 07:33:47;;;;;;;7.40;3.40;;;;;;;9.72;60.22;94357.81;106778;1275;22531;-77
2024/02/09 07:36:15;;;;;;;5.60;3.00;;;;;;;9.70;59.87;94357.70;106739;1275;22525;-76
2024/02/09 07:38:43;;;;;;;6.00;3.00;;;;;;;9.69;60.16;94366.31;106725;1275;22588;-77
2024/02/09 07:41:13;;;;;;;11.10;4.40;;;;;;;9.69;59.64;94365.80;106833;1275;22524;-77
2024/02/09 07:43:41;;;;;;;9.80;3.80;;;;;;;9.69;59.59;94371.58;107190;1275;22524;-78
2024/02/09 07:46:12;;;;;;;13.00;5.40;;;;;;;9.70;59.67;94362.25;106891;1275;22523;-77
2024/02/09 07:48:44;;;;;;;7.50;3.20;;;;;;;9.70;59.66;94359.45;106743;1275;24254;-79
2024/02/09 07:51:16;;;;;;;14.30;6.30;;;;;;;9.70;59.60;94366.11;106957;1275;24481;-78
2024/02/09 07:53:52;;;;;;;7.40;3.60;;;;;;;9.73;59.59;94358.99;106540;1275;24301;-77
2024/02/09 07:56:24;;;;;;;7.40;3.50;;;;;;;9.72;59.68;94359.55;106703;1275;24276;-77
2024/02/09 07:58:53;;;;;;;4.90;3.00;;;;;;;9.72;59.86;94369.23;107196;1275;22543;-77
2024/02/09 08:01:22;;;;;;;11.00;4.50;;;;;;;9.71;59.63;94361.00;106965;1275;22517;-76
2024/02/09 08:03:56;;;;;;;5.90;3.20;;;;;;;9.73;59.73;94358.64;106666;1275;25501;-77
2024/02/09 08:06:24;;;;;;;8.60;3.70;;;;;;;9.74;59.70;94368.63;106866;1273;25392;-77
2024/02/09 08:08:52;;;;;;;12.40;5.60;;;;;;;9.73;59.80;94361.98;106768;1264;22644;-78
2024/02/09 08:11:23;;;;;;;7.70;4.00;;;;;;;9.70;59.70;94367.69;106827;1271;22536;-77
2024/02/09 08:13:52;;;;;;;14.00;8.80;;;;;;;9.71;59.78;94369.95;106744;1272;22527;-78
2024/02/09 08:16:21;;;;;;;6.40;4.90;;;;;;;9.69;59.99;94375.12;106706;1275;22656;-77
2024/02/09 08:18:50;;;;;;;8.20;3.60;;;;;;;9.68;59.93;94382.70;106925;1271;25392;-77
2024/02/09 08:21:20;;;;;;;8.00;4.20;;;;;;;9.69;59.86;94377.77;106851;1275;22588;-76
2024/02/09 08:23:48;;;;;;;9.40;4.30;;;;;;;9.69;60.00;94375.83;107059;1275;23924;-77
2024/02/09 08:26:17;;;;;;;6.80;3.70;;;;;;;9.67;60.14;94376.77;107088;1275;25429;-79
2024/02/09 08:28:47;;;;;;;9.00;4.00;;;;;;;9.65;60.16;94377.55;106728;1275;22532;-77
2024/02/09 08:31:17;;;;;;;11.00;5.20;;;;;;;9.62;60.30;94375.88;106626;1275;25355;-77
2024/02/09 08:33:51;;;;;;;5.80;3.40;;;;;;;9.61;60.14;94381.02;106754;1275;22524;-77
2024/02/09 08:36:23;;;;;;;5.50;3.70;;;;;;;9.62;60.19;94381.85;106719;1275;25523;-77
2024/02/09 08:38:51;;;;;;;6.40;3.60;;;;;;;9.62;60.31;94375.35;106749;1275;24272;-77
2024/02/09 08:41:19;;;;;;;11.00;5.70;;;;;;;9.62;60.29;94377.46;106659;1275;25276;-77
2024/02/09 08:43:48;;;;;;;5.50;3.80;;;;;;;9.62;60.43;94380.82;106636;1275;22610;-77
2024/02/09 08:46:16;;;;;;;6.40;3.40;;;;;;;9.64;60.01;94380.39;106753;1275;22640;-77
2024/02/09 08:48:45;;;;;;;8.40;3.70;;;;;;;9.66;59.80;94378.20;106884;1275;22536;-77
2024/02/09 08:51:13;;;;;;;8.70;4.70;;;;;;;9.68;59.96;94380.77;106649;1275;22672;-77
2024/02/09 08:53:42;;;;;;;9.00;3.60;;;;;;;9.67;60.07;94379.55;106972;1275;22543;-77
2024/02/09 08:56:15;;;;;;;;;;;;;;;9.68;59.98;94384.09;106817;1274;22536;-76
2024/02/09 08:58:46;;;;;;;8.50;4.00;;;;;;;9.66;60.12;94377.31;106719;1273;27474;-76
2024/02/09 09:01:14;;;;;;;6.20;2.90;;;;;;;9.66;59.85;94380.47;107078;1275;25323;-76
2024/02/09 09:03:44;;;;;;;7.10;3.10;;;;;;;9.69;59.98;94389.88;106832;1275;25304;-77
2024/02/09 09:06:15;;;;;;;9.70;4.10;;;;;;;9.69;59.89;94385.45;106970;1275;22783;-79
2024/02/09 09:08:43;;;;;;;7.90;4.20;;;;;;;9.70;60.02;94381.23;107043;1261;22576;-79
2024/02/09 09:11:13;;;;;;;6.40;3.70;;;;;;;9.69;60.36;94379.13;106780;1275;23708;-78
2024/02/09 09:13:41;;;;;;;7.50;4.90;;;;;;;9.69;60.56;94378.45;106757;1275;22527;-78
2024/02/09 09:16:10;;;;;;;7.00;4.50;;;;;;;9.69;60.43;94376.50;106656;1275;24223;-78
2024/02/09 09:18:39;;;;;;;10.80;4.70;;;;;;;9.71;60.55;94378.89;106751;1275;22583;-79
2024/02/09 09:21:08;;;;;;;10.10;4.30;;;;;;;9.73;60.45;94371.83;106756;1275;22575;-77
2024/02/09 09:23:37;;;;;;;8.00;3.40;;;;;;;9.75;60.49;94375.78;106714;1275;25413;-79
2024/02/09 09:26:06;;;;;;;6.00;3.60;;;;;;;9.76;60.28;94369.08;106731;1275;24826;-79
2024/02/09 09:28:49;;;;;;;8.70;4.20;;;;;;;9.81;59.90;94380.33;107005;1275;22563;-77
2024/02/09 09:31:19;;;;;;;8.40;3.30;;;;;;;9.83;59.58;94373.75;106734;1275;22654;-77
2024/02/09 09:33:48;;;;;;;8.70;3.80;;;;;;;9.88;59.51;94375.68;106655;1275;25355;-78
2024/02/09 09:36:17;;;;;;;30.50;16.20;;;;;;;9.91;59.68;94378.02;106815;1275;22616;-78
2024/02/09 09:38:45;;;;;;;26.70;13.80;;;;;;;9.93;59.52;94369.02;106837;1275;25456;-80
2024/02/09 09:41:13;;;;;;;15.00;7.40;;;;;;;9.94;60.02;94367.56;106708;1275;22532;-79
2024/02/09 09:43:42;;;;;;;8.50;3.90;;;;;;;9.96;59.59;94371.54;106795;1275;22620;-80
2024/02/09 09:46:11;;;;;;;7.10;3.70;;;;;;;10.01;59.41;94366.27;106719;1275;25250;-78
2024/02/09 09:48:40;;;;;;;11.70;4.70;;;;;;;10.05;59.40;94360.33;106787;1275;22640;-79
2024/02/09 09:51:10;;;;;;;21.30;10.80;;;;;;;10.10;59.37;94362.79;107209;1275;22995;-78
2024/02/09 09:53:42;;;;;;;5.40;3.10;;;;;;;10.13;59.00;94362.13;107235;1271;22530;-78
2024/02/09 09:56:13;;;;;;;8.50;3.80;;;;;;;10.20;58.62;94356.27;107069;1258;24345;-79
2024/02/09 09:58:41;;;;;;;7.20;3.20;;;;;;;10.26;58.55;94361.86;107147;1271;22537;-78
2024/02/09 10:01:11;;;;;;;9.80;4.10;;;;;;;10.34;58.27;94356.82;107119;1272;22542;-77
2024/02/09 10:03:42;;;;;;;11.70;5.70;;;;;;;10.41;58.27;94350.23;106645;1275;22523;-77
2024/02/09 10:06:11;;;;;;;9.50;4.00;;;;;;;10.45;58.36;94354.67;106611;1275;25474;-77
2024/02/09 10:08:40;;;;;;;43.40;22.10;;;;;;;10.46;58.26;94356.90;106594;1275;24276;-77
2024/02/09 10:11:08;;;;;;;25.20;14.60;;;;;;;10.47;58.43;94355.63;106642;1275;24231;-77
2024/02/09 10:13:40;;;;;;;16.90;9.50;;;;;;;10.50;58.37;94352.20;106609;1275;24408;-77
2024/02/09 10:16:09;;;;;;;12.70;7.30;;;;;;;10.53;58.45;94347.66;106579;1275;25307;-77
2024/02/09 10:18:38;;;;;;;15.20;8.20;;;;;;;10.55;58.54;94348.11;106670;1253;24777;-78
2024/02/09 10:21:08;;;;;;;8.30;3.30;;;;;;;10.56;57.46;94347.55;106658;1275;22645;-77
2024/02/09 10:23:36;;;;;;;7.60;3.40;;;;;;;10.59;57.50;94351.98;106627;1275;22603;-78
2024/02/09 10:26:06;;;;;;;5.90;2.90;;;;;;;10.64;57.42;94356.25;106624;1275;24371;-78
2024/02/09 10:28:35;;;;;;;4.20;2.90;;;;;;;10.67;57.14;94348.35;106690;1275;22535;-77
2024/02/09 10:31:05;;;;;;;10.20;3.90;;;;;;;10.71;57.28;94353.29;106611;1275;25406;-77
2024/02/09 10:33:35;;;;;;;8.30;3.50;;;;;;;10.72;56.96;94353.43;106682;1275;25344;-76
2024/02/09 10:36:05;;;;;;;5.20;2.90;;;;;;;10.74;56.89;94354.61;106630;1275;22545;-77
2024/02/09 10:38:34;;;;;;;5.00;2.70;;;;;;;10.76;56.99;94352.41;106693;1275;25252;-77
2024/02/09 10:41:03;;;;;;;21.40;7.30;;;;;;;10.79;56.97;94348.77;106628;1275;22480;-78
2024/02/09 10:43:35;;;;;;;5.70;2.90;;;;;;;10.80;57.41;94341.86;106642;1275;22520;-76
2024/02/09 10:46:06;;;;;;;7.80;3.50;;;;;;;10.81;56.93;94331.28;106637;1275;26533;-77
2024/02/09 10:48:37;;;;;;;9.50;4.70;;;;;;;10.83;57.36;94324.31;106656;1275;22560;-77
2024/02/09 10:51:08;;;;;;;5.90;3.20;;;;;;;10.84;57.54;94318.84;106678;1275;23039;-77
2024/02/09 10:53:49;;;;;;;9.80;3.70;;;;;;;10.83;57.76;94318.35;106755;1275;23044;-77
2024/02/09 10:56:25;;;;;;;6.90;3.30;;;;;;;10.83;57.63;94323.96;106579;1275;23168;-77
2024/02/09 10:58:56;;;;;;;9.30;4.00;;;;;;;10.87;57.67;94323.47;106735;1275;22531;-77
2024/02/09 11:01:25;;;;;;;5.90;3.10;;;;;;;10.94;57.77;94314.77;106655;1275;25761;-77
2024/02/09 11:03:54;;;;;;;4.80;3.50;;;;;;;11.00;57.02;94306.59;106642;1275;25297;-78
2024/02/09 11:06:24;;;;;;;5.40;2.70;;;;;;;11.11;57.25;94307.36;106719;1275;22524;-78
2024/02/09 11:08:55;;;;;;;7.30;3.60;;;;;;;11.24;56.53;94308.08;106803;1271;22826;-78
2024/02/09 11:11:27;;;;;;;8.40;2.80;;;;;;;11.37;56.52;94307.16;106619;1275;25365;-77
2024/02/09 11:14:09;;;;;;;7.30;3.40;;;;;;;11.51;56.52;94300.59;106646;1275;22532;-78
2024/02/09 11:16:47;;;;;;;9.30;3.80;;;;;;;11.63;56.22;94298.83;106634;1275;24274;-78
2024/02/09 11:19:17;;;;;;;5.00;3.20;;;;;;;11.76;56.38;94296.16;106657;1275;22531;-78
2024/02/09 11:21:57;;;;;;;10.40;4.60;;;;;;;11.88;56.30;94287.34;106712;1275;25362;-77
2024/02/09 11:24:26;;;;;;;9.10;3.50;;;;;;;12.05;55.68;94283.80;106563;1275;25270;-77
2024/02/09 11:26:59;;;;;;;8.50;3.30;;;;;;;12.17;55.21;94277.77;106651;1275;22522;-76
2024/02/09 11:29:27;;;;;;;6.30;3.10;;;;;;;12.32;55.72;94283.80;106756;1275;25344;-77
2024/02/09 11:31:56;;;;;;;11.30;4.20;;;;;;;12.42;54.34;94281.40;106633;1263;23890;-77
2024/02/09 11:34:26;;;;;;;12.80;6.80;;;;;;;12.43;54.43;94278.50;106685;1275;22534;-76
2024/02/09 11:36:58;;;;;;;5.30;3.10;;;;;;;12.47;54.90;94279.39;106640;1275;26610;-77
2024/02/09 11:39:28;;;;;;;9.40;5.30;;;;;;;12.50;54.60;94277.67;106672;1275;24089;-77
2024/02/09 11:41:57;;;;;;;8.80;4.00;;;;;;;12.53;54.58;94282.29;106673;1275;22530;-79
2024/02/09 11:44:26;;;;;;;11.20;4.20;;;;;;;12.59;54.45;94278.99;106640;1275;24256;-79
2024/02/09 11:46:55;;;;;;;9.60;4.00;;;;;;;12.76;54.29;94279.27;106647;1275;22649;-79
2024/02/09 11:49:26;;;;;;;5.00;3.30;;;;;;;13.05;52.99;94280.48;106694;1275;22941;-77
2024/02/09 11:52:05;;;;;;;11.20;3.70;;;;;;;13.16;52.08;94278.52;106716;1275;22952;-78
2024/02/09 11:54:34;;;;;;;10.20;4.10;;;;;;;13.14;52.46;94286.90;106649;1263;22598;-78
2024/02/09 11:57:03;;;;;;;7.10;3.60;;;;;;;13.04;51.94;94281.58;106727;1275;25384;-78
2024/02/09 11:59:37;;;;;;;4.80;3.00;;;;;;;12.97;52.05;94274.54;106650;1275;22534;-78
2024/02/09 12:02:09;;;;;;;7.20;2.60;;;;;;;12.90;52.13;94274.68;106589;1275;22537;-78
2024/02/09 12:04:38;;;;;;;6.90;2.60;;;;;;;12.85;52.12;94273.01;106664;1275;25297;-77
2024/02/09 12:07:06;;;;;;;6.10;3.40;;;;;;;12.74;52.25;94274.59;107017;1275;22618;-78
2024/02/09 12:09:36;;;;;;;6.40;3.40;;;;;;;12.59;52.33;94282.34;106746;1275;24389;-78
2024/02/09 12:12:06;;;;;;;3.90;2.50;;;;;;;12.49;52.14;94279.11;106655;1275;24286;-78
2024/02/09 12:14:38;;;;;;;3.40;2.40;;;;;;;12.47;52.59;94277.29;106632;1275;22578;-77
2024/02/09 12:17:09;;;;;;;4.30;2.50;;;;;;;12.46;52.20;94259.51;106709;1275;25461;-78
2024/02/09 12:19:37;;;;;;;18.70;8.90;;;;;;;12.45;52.51;94263.98;106857;1275;24273;-78
2024/02/09 12:22:06;;;;;;;7.60;4.00;;;;;;;12.44;52.48;94261.18;106664;1275;25306;-78
2024/02/09 12:24:35;;;;;;;6.90;2.90;;;;;;;12.47;52.67;94271.10;106807;1275;22537;-78
2024/02/09 12:27:15;;;;;;;15.40;7.20;;;;;;;12.49;52.83;94269.27;106702;1275;25338;-78
2024/02/09 12:29:44;;;;;;;5.20;3.30;;;;;;;12.53;52.73;94281.74;106689;1275;22547;-79
2024/02/09 12:32:13;;;;;;;14.50;5.10;;;;;;;12.57;52.40;94276.45;106676;1275;22574;-78
2024/02/09 12:34:46;;;;;;;11.50;4.70;;;;;;;12.78;52.57;94270.48;106663;1275;22526;-77
2024/02/09 12:37:17;;;;;;;12.80;5.80;;;;;;;13.29;51.97;94277.55;106770;1275;22538;-78
2024/02/09 12:39:49;;;;;;;8.50;4.80;;;;;;;13.52;50.97;94287.02;106764;1275;24292;-77
2024/02/09 12:42:18;;;;;;;9.80;3.50;;;;;;;13.68;50.25;94288.31;106643;1275;24211;-79
2024/02/09 12:44:49;;;;;;;5.90;2.70;;;;;;;13.71;50.20;94278.77;106602;1275;22539;-78
2024/02/09 12:47:18;;;;;;;6.00;2.80;;;;;;;13.80;50.13;94277.94;106619;1275;25422;-78
2024/02/09 12:49:49;;;;;;;8.10;2.70;;;;;;;13.84;49.91;94280.74;106583;1275;22524;-78
2024/02/09 12:52:19;;;;;;;5.60;2.60;;;;;;;13.93;49.78;94269.52;106739;1275;24221;-78
2024/02/09 12:54:48;;;;;;;7.80;3.70;;;;;;;14.03;50.02;94260.83;106684;1275;22527;-78
2024/02/09 12:57:18;;;;;;;7.40;3.30;;;;;;;13.96;50.24;94265.98;106631;1275;22530;-78
2024/02/09 12:59:46;;;;;;;10.60;3.30;;;;;;;13.80;50.59;94268.04;106716;1275;22796;-78
2024/02/09 13:02:15;;;;;;;6.50;2.80;;;;;;;13.62;50.68;94269.17;106699;1275;24219;-78
2024/02/09 13:04:44;;;;;;;4.50;2.70;;;;;;;13.33;51.06;94262.86;106620;1275;25322;-78
2024/02/09 13:07:14;;;;;;;5.20;2.90;;;;;;;13.07;51.55;94262.20;106732;1275;25351;-78
2024/02/09 13:09:43;;;;;;;7.30;3.60;;;;;;;12.87;52.53;94259.82;106673;1275;22534;-78
2024/02/09 13:12:11;;;;;;;7.20;3.50;;;;;;;12.65;52.89;94261.94;106668;1275;26529;-82
2024/02/09 13:14:40;;;;;;;10.20;4.20;;;;;;;12.42;53.26;94266.57;106698;1275;25514;-79
2024/02/09 13:17:10;;;;;;;4.70;3.00;;;;;;;12.33;53.56;94268.58;106678;1275;22532;-79
2024/02/09 13:19:39;;;;;;;7.00;3.00;;;;;;;12.27;53.71;94258.80;106548;1275;22537;-79
2024/02/09 13:22:08;;;;;;;5.10;2.60;;;;;;;12.28;53.84;94256.45;106619;1275;24474;-79
2024/02/09 13:24:39;;;;;;;5.50;3.30;;;;;;;12.32;53.80;94256.09;106630;1275;22533;-79
2024/02/09 13:27:12;;;;;;;5.60;2.80;;;;;;;12.30;53.84;94264.48;106751;1275;24030;-79